Terminal Aerodrome Forecast
Issued by NWS

Home | Current Version | Previous Version | Text Only | Print | Product List | Glossary On
Versions: 1 2 3 4 5 6 7 8 9 10 11 12 13 14 15
000
FTUS44 KLZK 301700
TAFHOT
TAF
KHOT 301723Z 3018/0118 VRB03KT P6SM SCT100 BKN250
     FM010000 14003KT P6SM SCT100 BKN250
     FM011300 16003KT P6SM BKN100 PROB30 0113/0118 -RA OVC025=

USA.gov is the U.S. government's official web portal to all federal, state and local government web resources and services.